sensor_id;sensor_type;location;lat;lon;timestamp;temperature;humidity
62339;DHT22;48368;53.406;6.214;2023-09-19T00:00:21;14.30;99.90
62339;DHT22;48368;53.406;6.214;2023-09-19T00:02:57;14.30;99.90
62339;DHT22;48368;53.406;6.214;2023-09-19T00:05:33;14.30;99.90
62339;DHT22;48368;53.406;6.214;2023-09-19T00:08:00;14.30;99.90
62339;DHT22;48368;53.406;6.214;2023-09-19T00:10:27;14.20;99.90
62339;DHT22;48368;53.406;6.214;2023-09-19T00:12:56;14.20;99.90
62339;DHT22;48368;53.406;6.214;2023-09-19T00:15:24;14.20;99.90
62339;DHT22;48368;53.406;6.214;2023-09-19T00:17:51;14.10;99.90
62339;DHT22;48368;53.406;6.214;2023-09-19T00:20:18;14.00;99.90
62339;DHT22;48368;53.406;6.214;2023-09-19T00:22:44;14.00;99.90
62339;DHT22;48368;53.406;6.214;2023-09-19T00:25:10;14.00;99.90
62339;DHT22;48368;53.406;6.214;2023-09-19T00:27:40;14.00;99.90
62339;DHT22;48368;53.406;6.214;2023-09-19T00:30:09;14.00;99.90
62339;DHT22;48368;53.406;6.214;2023-09-19T00:32:45;14.00;99.90
62339;DHT22;48368;53.406;6.214;2023-09-19T00:35:13;14.00;99.90
62339;DHT22;48368;53.406;6.214;2023-09-19T00:37:40;14.00;99.90
62339;DHT22;48368;53.406;6.214;2023-09-19T00:40:08;14.00;99.90
62339;DHT22;48368;53.406;6.214;2023-09-19T00:42:57;13.90;99.90
62339;DHT22;48368;53.406;6.214;2023-09-19T00:45:25;13.80;99.90
62339;DHT22;48368;53.406;6.214;2023-09-19T00:47:51;13.80;99.90
62339;DHT22;48368;53.406;6.214;2023-09-19T00:50:22;13.80;99.90
62339;DHT22;48368;53.406;6.214;2023-09-19T00:52:50;13.70;99.90
62339;DHT22;48368;53.406;6.214;2023-09-19T00:55:18;13.70;99.90
62339;DHT22;48368;53.406;6.214;2023-09-19T00:57:47;13.80;99.90
62339;DHT22;48368;53.406;6.214;2023-09-19T01:00:15;13.80;99.90
62339;DHT22;48368;53.406;6.214;2023-09-19T01:02:42;13.70;99.90
62339;DHT22;48368;53.406;6.214;2023-09-19T01:05:11;13.80;99.90
62339;DHT22;48368;53.406;6.214;2023-09-19T01:07:38;13.70;99.90
62339;DHT22;48368;53.406;6.214;2023-09-19T01:10:09;13.70;99.90
62339;DHT22;48368;53.406;6.214;2023-09-19T01:18:16;13.70;99.90
62339;DHT22;48368;53.406;6.214;2023-09-19T01:21:37;13.70;99.90
62339;DHT22;48368;53.406;6.214;2023-09-19T01:29:46;13.70;99.90
62339;DHT22;48368;53.406;6.214;2023-09-19T01:32:18;13.70;99.90
62339;DHT22;48368;53.406;6.214;2023-09-19T01:34:49;13.70;99.90
62339;DHT22;48368;53.406;6.214;2023-09-19T01:37:16;13.60;99.90
62339;DHT22;48368;53.406;6.214;2023-09-19T01:39:50;13.60;99.90
62339;DHT22;48368;53.406;6.214;2023-09-19T01:47:54;13.50;99.90
62339;DHT22;48368;53.406;6.214;2023-09-19T01:50:53;13.60;99.90
62339;DHT22;48368;53.406;6.214;2023-09-19T01:53:30;13.50;99.90
62339;DHT22;48368;53.406;6.214;2023-09-19T01:56:05;13.50;99.90
62339;DHT22;48368;53.406;6.214;2023-09-19T01:58:37;13.50;99.90
62339;DHT22;48368;53.406;6.214;2023-09-19T02:01:05;13.40;99.90
62339;DHT22;48368;53.406;6.214;2023-09-19T02:03:33;13.40;99.90
62339;DHT22;48368;53.406;6.214;2023-09-19T02:06:00;13.40;99.90
62339;DHT22;48368;53.406;6.214;2023-09-19T02:08:26;13.40;99.90
62339;DHT22;48368;53.406;6.214;2023-09-19T02:10:52;13.40;99.90
62339;DHT22;48368;53.406;6.214;2023-09-19T02:13:19;13.40;99.90
62339;DHT22;48368;53.406;6.214;2023-09-19T02:15:45;13.30;99.90
62339;DHT22;48368;53.406;6.214;2023-09-19T02:18:12;13.30;99.90
62339;DHT22;48368;53.406;6.214;2023-09-19T02:20:39;13.30;99.90
62339;DHT22;48368;53.406;6.214;2023-09-19T02:23:05;13.30;99.90
62339;DHT22;48368;53.406;6.214;2023-09-19T02:25:34;13.20;99.90
62339;DHT22;48368;53.406;6.214;2023-09-19T02:28:01;13.30;99.90
62339;DHT22;48368;53.406;6.214;2023-09-19T02:30:28;13.30;99.90
62339;DHT22;48368;53.406;6.214;2023-09-19T02:32:54;13.30;99.90
62339;DHT22;48368;53.406;6.214;2023-09-19T02:35:20;13.20;99.90
62339;DHT22;48368;53.406;6.214;2023-09-19T02:37:46;13.30;99.90
62339;DHT22;48368;53.406;6.214;2023-09-19T02:40:12;13.30;99.90
62339;DHT22;48368;53.406;6.214;2023-09-19T02:42:55;13.20;99.90
62339;DHT22;48368;53.406;6.214;2023-09-19T02:45:21;13.30;99.90
62339;DHT22;48368;53.406;6.214;2023-09-19T02:47:48;13.20;99.90
62339;DHT22;48368;53.406;6.214;2023-09-19T02:50:14;13.20;99.90
62339;DHT22;48368;53.406;6.214;2023-09-19T02:52:43;13.20;99.90
62339;DHT22;48368;53.406;6.214;2023-09-19T02:55:13;13.20;99.90
62339;DHT22;48368;53.406;6.214;2023-09-19T02:57:49;13.20;99.90
62339;DHT22;48368;53.406;6.214;2023-09-19T03:00:19;13.20;99.90
62339;DHT22;48368;53.406;6.214;2023-09-19T03:02:53;13.20;99.90
62339;DHT22;48368;53.406;6.214;2023-09-19T03:05:20;13.20;99.90
62339;DHT22;48368;53.406;6.214;2023-09-19T03:07:47;13.20;99.90
62339;DHT22;48368;53.406;6.214;2023-09-19T03:10:19;13.20;99.90
62339;DHT22;48368;53.406;6.214;2023-09-19T03:12:46;13.20;99.90
62339;DHT22;48368;53.406;6.214;2023-09-19T03:15:13;13.10;99.90
62339;DHT22;48368;53.406;6.214;2023-09-19T03:17:46;13.10;99.90
62339;DHT22;48368;53.406;6.214;2023-09-19T03:20:13;13.20;99.90
62339;DHT22;48368;53.406;6.214;2023-09-19T03:22:43;13.20;99.90
62339;DHT22;48368;53.406;6.214;2023-09-19T03:25:08;13.20;99.90
62339;DHT22;48368;53.406;6.214;2023-09-19T03:27:35;13.20;99.90
62339;DHT22;48368;53.406;6.214;2023-09-19T03:30:01;13.20;99.90
62339;DHT22;48368;53.406;6.214;2023-09-19T03:32:30;13.20;99.90
62339;DHT22;48368;53.406;6.214;2023-09-19T03:34:57;13.20;99.90
62339;DHT22;48368;53.406;6.214;2023-09-19T03:37:22;13.20;99.90
62339;DHT22;48368;53.406;6.214;2023-09-19T03:39:48;13.20;99.90
62339;DHT22;48368;53.406;6.214;2023-09-19T03:42:13;13.20;99.90
62339;DHT22;48368;53.406;6.214;2023-09-19T03:44:39;13.20;99.90
62339;DHT22;48368;53.406;6.214;2023-09-19T03:47:05;13.20;99.90
62339;DHT22;48368;53.406;6.214;2023-09-19T03:49:32;13.20;99.90
62339;DHT22;48368;53.406;6.214;2023-09-19T03:51:59;13.20;99.90
62339;DHT22;48368;53.406;6.214;2023-09-19T03:54:25;13.20;99.90
62339;DHT22;48368;53.406;6.214;2023-09-19T03:56:50;13.20;99.90
62339;DHT22;48368;53.406;6.214;2023-09-19T03:59:16;13.20;99.90
62339;DHT22;48368;53.406;6.214;2023-09-19T04:01:43;13.20;99.90
62339;DHT22;48368;53.406;6.214;2023-09-19T04:04:09;13.20;99.90
62339;DHT22;48368;53.406;6.214;2023-09-19T04:06:35;13.20;99.90
62339;DHT22;48368;53.406;6.214;2023-09-19T04:09:01;13.20;99.90
62339;DHT22;48368;53.406;6.214;2023-09-19T04:11:32;13.20;99.90
62339;DHT22;48368;53.406;6.214;2023-09-19T04:13:58;13.30;99.90
62339;DHT22;48368;53.406;6.214;2023-09-19T04:16:24;13.30;99.90
62339;DHT22;48368;53.406;6.214;2023-09-19T04:18:53;13.30;99.90
62339;DHT22;48368;53.406;6.214;2023-09-19T04:21:18;13.20;99.90
62339;DHT22;48368;53.406;6.214;2023-09-19T04:23:47;13.30;99.90
62339;DHT22;48368;53.406;6.214;2023-09-19T04:26:12;13.20;99.90
62339;DHT22;48368;53.406;6.214;2023-09-19T04:28:38;13.20;99.90
62339;DHT22;48368;53.406;6.214;2023-09-19T04:31:04;13.20;99.90
62339;DHT22;48368;53.406;6.214;2023-09-19T04:33:29;13.20;99.90
62339;DHT22;48368;53.406;6.214;2023-09-19T04:35:56;13.20;99.90
62339;DHT22;48368;53.406;6.214;2023-09-19T04:38:23;13.20;99.90
62339;DHT22;48368;53.406;6.214;2023-09-19T04:40:49;13.30;99.90
62339;DHT22;48368;53.406;6.214;2023-09-19T04:43:14;13.20;99.90
62339;DHT22;48368;53.406;6.214;2023-09-19T04:45:41;13.20;99.90
62339;DHT22;48368;53.406;6.214;2023-09-19T04:48:06;13.30;99.90
62339;DHT22;48368;53.406;6.214;2023-09-19T04:50:34;13.30;99.90
62339;DHT22;48368;53.406;6.214;2023-09-19T04:52:59;13.30;99.90
62339;DHT22;48368;53.406;6.214;2023-09-19T04:55:26;13.30;99.90
62339;DHT22;48368;53.406;6.214;2023-09-19T04:57:52;13.30;99.90
62339;DHT22;48368;53.406;6.214;2023-09-19T05:00:22;13.30;99.90
62339;DHT22;48368;53.406;6.214;2023-09-19T05:02:50;13.30;99.90
62339;DHT22;48368;53.406;6.214;2023-09-19T05:05:17;13.30;99.90
62339;DHT22;48368;53.406;6.214;2023-09-19T05:07:45;13.30;99.90
62339;DHT22;48368;53.406;6.214;2023-09-19T05:10:11;13.30;99.90
62339;DHT22;48368;53.406;6.214;2023-09-19T05:12:38;13.30;99.90
62339;DHT22;48368;53.406;6.214;2023-09-19T05:15:07;13.30;99.90
62339;DHT22;48368;53.406;6.214;2023-09-19T05:17:34;13.30;99.90
62339;DHT22;48368;53.406;6.214;2023-09-19T05:20:00;13.30;99.90
62339;DHT22;48368;53.406;6.214;2023-09-19T05:22:31;13.30;99.90
62339;DHT22;48368;53.406;6.214;2023-09-19T05:24:58;13.40;99.90
62339;DHT22;48368;53.406;6.214;2023-09-19T05:27:24;13.40;99.90
62339;DHT22;48368;53.406;6.214;2023-09-19T05:29:49;13.40;99.90
62339;DHT22;48368;53.406;6.214;2023-09-19T05:32:19;13.40;99.90
62339;DHT22;48368;53.406;6.214;2023-09-19T05:34:45;13.40;99.90
62339;DHT22;48368;53.406;6.214;2023-09-19T05:37:12;13.40;99.90
62339;DHT22;48368;53.406;6.214;2023-09-19T05:39:39;13.40;99.90
62339;DHT22;48368;53.406;6.214;2023-09-19T05:42:04;13.40;99.90
62339;DHT22;48368;53.406;6.214;2023-09-19T05:44:30;13.40;99.90
62339;DHT22;48368;53.406;6.214;2023-09-19T05:46:57;13.50;99.90
62339;DHT22;48368;53.406;6.214;2023-09-19T05:49:23;13.50;99.90
62339;DHT22;48368;53.406;6.214;2023-09-19T05:51:50;13.50;99.90
62339;DHT22;48368;53.406;6.214;2023-09-19T05:54:16;13.50;99.90
62339;DHT22;48368;53.406;6.214;2023-09-19T05:56:43;13.60;99.90
62339;DHT22;48368;53.406;6.214;2023-09-19T05:59:12;13.60;99.90
62339;DHT22;48368;53.406;6.214;2023-09-19T06:01:42;13.60;99.90
62339;DHT22;48368;53.406;6.214;2023-09-19T06:04:07;13.70;99.90
62339;DHT22;48368;53.406;6.214;2023-09-19T06:06:33;13.70;99.90
62339;DHT22;48368;53.406;6.214;2023-09-19T06:09:02;13.70;99.90
62339;DHT22;48368;53.406;6.214;2023-09-19T06:11:30;13.70;99.90
62339;DHT22;48368;53.406;6.214;2023-09-19T06:13:58;13.80;99.90
62339;DHT22;48368;53.406;6.214;2023-09-19T06:16:25;13.80;99.90
62339;DHT22;48368;53.406;6.214;2023-09-19T06:18:51;13.80;99.90
62339;DHT22;48368;53.406;6.214;2023-09-19T06:21:18;13.80;99.90
62339;DHT22;48368;53.406;6.214;2023-09-19T06:23:43;13.80;99.90
62339;DHT22;48368;53.406;6.214;2023-09-19T06:26:09;13.80;99.90
62339;DHT22;48368;53.406;6.214;2023-09-19T06:28:35;13.90;99.90
62339;DHT22;48368;53.406;6.214;2023-09-19T06:31:02;13.90;99.90
62339;DHT22;48368;53.406;6.214;2023-09-19T06:33:28;13.90;99.90
62339;DHT22;48368;53.406;6.214;2023-09-19T06:35:56;13.90;99.90
62339;DHT22;48368;53.406;6.214;2023-09-19T06:38:25;14.00;99.90
62339;DHT22;48368;53.406;6.214;2023-09-19T06:41:06;13.90;99.90
62339;DHT22;48368;53.406;6.214;2023-09-19T06:43:34;14.00;99.90
62339;DHT22;48368;53.406;6.214;2023-09-19T06:46:01;14.00;99.90
62339;DHT22;48368;53.406;6.214;2023-09-19T06:48:27;14.00;99.90
62339;DHT22;48368;53.406;6.214;2023-09-19T06:50:57;14.00;99.90
62339;DHT22;48368;53.406;6.214;2023-09-19T06:53:24;14.00;99.90
62339;DHT22;48368;53.406;6.214;2023-09-19T06:55:53;14.10;99.90
62339;DHT22;48368;53.406;6.214;2023-09-19T06:58:19;14.00;99.90
62339;DHT22;48368;53.406;6.214;2023-09-19T07:00:45;14.10;99.90
62339;DHT22;48368;53.406;6.214;2023-09-19T07:03:13;14.10;99.90
62339;DHT22;48368;53.406;6.214;2023-09-19T07:05:40;14.10;99.90
62339;DHT22;48368;53.406;6.214;2023-09-19T07:08:07;14.20;99.90
62339;DHT22;48368;53.406;6.214;2023-09-19T07:10:33;14.20;99.90
62339;DHT22;48368;53.406;6.214;2023-09-19T07:13:00;14.30;99.90
62339;DHT22;48368;53.406;6.214;2023-09-19T07:15:27;14.30;99.90
62339;DHT22;48368;53.406;6.214;2023-09-19T07:17:53;14.40;99.90
62339;DHT22;48368;53.406;6.214;2023-09-19T07:20:20;14.40;99.90
62339;DHT22;48368;53.406;6.214;2023-09-19T07:22:46;14.50;99.90
62339;DHT22;48368;53.406;6.214;2023-09-19T07:25:13;14.50;99.90
62339;DHT22;48368;53.406;6.214;2023-09-19T07:27:43;14.50;99.90
62339;DHT22;48368;53.406;6.214;2023-09-19T07:30:10;14.60;99.90
62339;DHT22;48368;53.406;6.214;2023-09-19T07:32:37;14.70;99.90
62339;DHT22;48368;53.406;6.214;2023-09-19T07:35:04;14.80;99.90
62339;DHT22;48368;53.406;6.214;2023-09-19T07:37:31;14.80;99.90
62339;DHT22;48368;53.406;6.214;2023-09-19T07:40:07;14.90;99.90
62339;DHT22;48368;53.406;6.214;2023-09-19T07:42:35;14.90;99.90
62339;DHT22;48368;53.406;6.214;2023-09-19T07:45:02;15.00;99.90
62339;DHT22;48368;53.406;6.214;2023-09-19T07:47:29;15.10;99.90
62339;DHT22;48368;53.406;6.214;2023-09-19T07:49:55;15.10;99.90
62339;DHT22;48368;53.406;6.214;2023-09-19T07:52:21;15.10;99.90
62339;DHT22;48368;53.406;6.214;2023-09-19T07:54:48;15.20;99.90
62339;DHT22;48368;53.406;6.214;2023-09-19T07:57:15;15.20;99.90
62339;DHT22;48368;53.406;6.214;2023-09-19T07:59:41;15.20;99.90
62339;DHT22;48368;53.406;6.214;2023-09-19T08:02:07;15.40;99.90
62339;DHT22;48368;53.406;6.214;2023-09-19T08:04:35;15.40;99.90
62339;DHT22;48368;53.406;6.214;2023-09-19T08:07:01;15.50;99.90
62339;DHT22;48368;53.406;6.214;2023-09-19T08:09:29;15.50;99.90
62339;DHT22;48368;53.406;6.214;2023-09-19T08:11:59;15.70;99.90
62339;DHT22;48368;53.406;6.214;2023-09-19T08:14:29;15.80;99.90
62339;DHT22;48368;53.406;6.214;2023-09-19T08:17:04;15.90;99.90
62339;DHT22;48368;53.406;6.214;2023-09-19T08:19:31;16.00;99.90
62339;DHT22;48368;53.406;6.214;2023-09-19T08:21:58;16.10;99.90
62339;DHT22;48368;53.406;6.214;2023-09-19T08:24:27;16.20;99.90
62339;DHT22;48368;53.406;6.214;2023-09-19T08:26:54;16.30;99.90
62339;DHT22;48368;53.406;6.214;2023-09-19T08:29:21;16.40;99.90
62339;DHT22;48368;53.406;6.214;2023-09-19T08:31:47;16.50;99.90
62339;DHT22;48368;53.406;6.214;2023-09-19T08:34:16;16.60;99.90
62339;DHT22;48368;53.406;6.214;2023-09-19T08:36:42;16.60;99.90
62339;DHT22;48368;53.406;6.214;2023-09-19T08:39:09;16.70;99.90
62339;DHT22;48368;53.406;6.214;2023-09-19T08:41:36;16.80;99.90
62339;DHT22;48368;53.406;6.214;2023-09-19T08:44:02;16.80;99.90
62339;DHT22;48368;53.406;6.214;2023-09-19T08:46:30;16.90;99.90
62339;DHT22;48368;53.406;6.214;2023-09-19T08:49:12;16.80;99.90
62339;DHT22;48368;53.406;6.214;2023-09-19T08:51:46;16.80;99.90
62339;DHT22;48368;53.406;6.214;2023-09-19T08:54:22;16.80;99.90
62339;DHT22;48368;53.406;6.214;2023-09-19T08:56:53;16.70;99.90
62339;DHT22;48368;53.406;6.214;2023-09-19T08:59:22;16.70;99.90
62339;DHT22;48368;53.406;6.214;2023-09-19T09:01:49;16.60;99.90
62339;DHT22;48368;53.406;6.214;2023-09-19T09:04:19;16.60;99.90
62339;DHT22;48368;53.406;6.214;2023-09-19T09:06:46;16.60;99.90
62339;DHT22;48368;53.406;6.214;2023-09-19T09:09:17;16.60;99.90
62339;DHT22;48368;53.406;6.214;2023-09-19T09:11:42;16.70;99.90
62339;DHT22;48368;53.406;6.214;2023-09-19T09:14:08;16.70;99.90
62339;DHT22;48368;53.406;6.214;2023-09-19T09:16:34;16.80;99.90
62339;DHT22;48368;53.406;6.214;2023-09-19T09:19:00;16.80;99.90
62339;DHT22;48368;53.406;6.214;2023-09-19T09:21:27;16.80;99.90
62339;DHT22;48368;53.406;6.214;2023-09-19T09:23:54;16.90;99.90
62339;DHT22;48368;53.406;6.214;2023-09-19T09:29:04;17.10;99.90
62339;DHT22;48368;53.406;6.214;2023-09-19T09:31:32;17.10;99.90
62339;DHT22;48368;53.406;6.214;2023-09-19T09:33:58;17.10;99.90
62339;DHT22;48368;53.406;6.214;2023-09-19T09:36:38;17.20;99.90
62339;DHT22;48368;53.406;6.214;2023-09-19T09:39:04;17.20;99.90
62339;DHT22;48368;53.406;6.214;2023-09-19T09:41:50;17.20;99.90
62339;DHT22;48368;53.406;6.214;2023-09-19T09:44:17;17.20;99.90
62339;DHT22;48368;53.406;6.214;2023-09-19T09:46:45;17.20;99.90
62339;DHT22;48368;53.406;6.214;2023-09-19T09:49:24;17.30;99.90
62339;DHT22;48368;53.406;6.214;2023-09-19T09:52:07;17.40;99.90
62339;DHT22;48368;53.406;6.214;2023-09-19T09:54:37;17.40;99.90
62339;DHT22;48368;53.406;6.214;2023-09-19T09:57:08;17.50;99.90
62339;DHT22;48368;53.406;6.214;2023-09-19T09:59:53;17.50;99.90
62339;DHT22;48368;53.406;6.214;2023-09-19T10:02:29;17.60;99.90
62339;DHT22;48368;53.406;6.214;2023-09-19T10:05:17;17.70;99.90
62339;DHT22;48368;53.406;6.214;2023-09-19T10:07:51;17.80;99.90
62339;DHT22;48368;53.406;6.214;2023-09-19T10:10:35;17.80;99.90
62339;DHT22;48368;53.406;6.214;2023-09-19T10:13:09;17.90;99.90
62339;DHT22;48368;53.406;6.214;2023-09-19T10:15:39;17.90;99.90
62339;DHT22;48368;53.406;6.214;2023-09-19T10:18:12;18.00;99.90
62339;DHT22;48368;53.406;6.214;2023-09-19T10:20:45;18.10;99.90
62339;DHT22;48368;53.406;6.214;2023-09-19T10:23:12;18.10;99.90
62339;DHT22;48368;53.406;6.214;2023-09-19T10:25:46;18.10;99.90
62339;DHT22;48368;53.406;6.214;2023-09-19T10:28:15;18.10;99.90
62339;DHT22;48368;53.406;6.214;2023-09-19T10:30:45;18.10;99.90
62339;DHT22;48368;53.406;6.214;2023-09-19T10:33:14;18.10;99.90
62339;DHT22;48368;53.406;6.214;2023-09-19T10:35:45;18.20;99.90
62339;DHT22;48368;53.406;6.214;2023-09-19T10:38:12;18.30;99.90
62339;DHT22;48368;53.406;6.214;2023-09-19T10:40:39;18.30;99.90
62339;DHT22;48368;53.406;6.214;2023-09-19T10:43:17;18.30;99.90
62339;DHT22;48368;53.406;6.214;2023-09-19T10:45:48;18.30;99.90
62339;DHT22;48368;53.406;6.214;2023-09-19T10:48:19;18.30;99.90
62339;DHT22;48368;53.406;6.214;2023-09-19T10:51:08;18.30;99.90
62339;DHT22;48368;53.406;6.214;2023-09-19T10:53:55;18.30;99.90
62339;DHT22;48368;53.406;6.214;2023-09-19T10:56:38;18.30;99.90
62339;DHT22;48368;53.406;6.214;2023-09-19T10:59:08;18.40;99.90
62339;DHT22;48368;53.406;6.214;2023-09-19T11:01:49;18.30;99.90
62339;DHT22;48368;53.406;6.214;2023-09-19T11:04:32;18.20;99.90
62339;DHT22;48368;53.406;6.214;2023-09-19T11:07:11;18.10;99.90
62339;DHT22;48368;53.406;6.214;2023-09-19T11:09:54;17.90;99.90
62339;DHT22;48368;53.406;6.214;2023-09-19T11:14:56;17.70;99.90
62339;DHT22;48368;53.406;6.214;2023-09-19T11:17:34;17.70;99.90
62339;DHT22;48368;53.406;6.214;2023-09-19T11:30:51;17.60;99.90
62339;DHT22;48368;53.406;6.214;2023-09-19T11:33:25;17.60;99.90
62339;DHT22;48368;53.406;6.214;2023-09-19T11:36:11;17.50;99.90
62339;DHT22;48368;53.406;6.214;2023-09-19T11:49:18;17.50;99.90
62339;DHT22;48368;53.406;6.214;2023-09-19T11:51:50;17.50;99.90
62339;DHT22;48368;53.406;6.214;2023-09-19T11:54:19;17.50;99.90
62339;DHT22;48368;53.406;6.214;2023-09-19T11:56:49;17.50;99.90
62339;DHT22;48368;53.406;6.214;2023-09-19T11:59:31;17.40;99.90
62339;DHT22;48368;53.406;6.214;2023-09-19T12:02:01;17.40;99.90
62339;DHT22;48368;53.406;6.214;2023-09-19T12:04:35;17.30;99.90
62339;DHT22;48368;53.406;6.214;2023-09-19T12:07:08;17.30;99.90
62339;DHT22;48368;53.406;6.214;2023-09-19T12:09:48;17.10;99.90
62339;DHT22;48368;53.406;6.214;2023-09-19T12:12:26;17.00;99.90
62339;DHT22;48368;53.406;6.214;2023-09-19T12:15:01;16.90;99.90
62339;DHT22;48368;53.406;6.214;2023-09-19T12:17:39;16.70;99.90
62339;DHT22;48368;53.406;6.214;2023-09-19T12:20:08;16.70;99.90
62339;DHT22;48368;53.406;6.214;2023-09-19T12:22:43;16.60;99.90
62339;DHT22;48368;53.406;6.214;2023-09-19T12:25:10;16.50;99.90
62339;DHT22;48368;53.406;6.214;2023-09-19T12:27:47;16.40;99.90
62339;DHT22;48368;53.406;6.214;2023-09-19T12:30:14;16.50;99.90
62339;DHT22;48368;53.406;6.214;2023-09-19T12:32:40;16.70;99.90
62339;DHT22;48368;53.406;6.214;2023-09-19T12:35:07;16.70;99.90
62339;DHT22;48368;53.406;6.214;2023-09-19T12:37:36;16.80;99.90
62339;DHT22;48368;53.406;6.214;2023-09-19T12:40:07;16.80;99.90
62339;DHT22;48368;53.406;6.214;2023-09-19T12:42:56;17.00;99.90
62339;DHT22;48368;53.406;6.214;2023-09-19T12:45:22;17.00;99.90
62339;DHT22;48368;53.406;6.214;2023-09-19T12:48:19;17.20;99.90
62339;DHT22;48368;53.406;6.214;2023-09-19T12:51:10;17.20;99.90
62339;DHT22;48368;53.406;6.214;2023-09-19T12:53:44;17.20;99.90
62339;DHT22;48368;53.406;6.214;2023-09-19T12:56:13;17.20;99.90
62339;DHT22;48368;53.406;6.214;2023-09-19T12:59:08;17.20;99.90
62339;DHT22;48368;53.406;6.214;2023-09-19T13:01:42;17.20;99.90
62339;DHT22;48368;53.406;6.214;2023-09-19T13:04:22;17.20;99.90
62339;DHT22;48368;53.406;6.214;2023-09-19T13:06:55;17.10;99.90
62339;DHT22;48368;53.406;6.214;2023-09-19T13:09:27;17.10;99.90
62339;DHT22;48368;53.406;6.214;2023-09-19T13:12:05;17.10;99.90
62339;DHT22;48368;53.406;6.214;2023-09-19T13:14:33;17.00;99.90
62339;DHT22;48368;53.406;6.214;2023-09-19T13:19:46;16.90;99.90
62339;DHT22;48368;53.406;6.214;2023-09-19T13:22:40;16.90;99.90
62339;DHT22;48368;53.406;6.214;2023-09-19T13:25:16;17.00;99.90
62339;DHT22;48368;53.406;6.214;2023-09-19T13:30:20;17.10;99.90
62339;DHT22;48368;53.406;6.214;2023-09-19T13:36:04;17.20;99.90
62339;DHT22;48368;53.406;6.214;2023-09-19T13:38:30;17.20;99.90
62339;DHT22;48368;53.406;6.214;2023-09-19T13:40:56;17.10;99.90
62339;DHT22;48368;53.406;6.214;2023-09-19T13:43:22;17.20;99.90
62339;DHT22;48368;53.406;6.214;2023-09-19T13:45:53;17.30;99.90
62339;DHT22;48368;53.406;6.214;2023-09-19T13:48:19;17.30;99.90
62339;DHT22;48368;53.406;6.214;2023-09-19T13:50:54;17.30;99.90
62339;DHT22;48368;53.406;6.214;2023-09-19T13:53:23;17.50;99.90
62339;DHT22;48368;53.406;6.214;2023-09-19T13:55:51;17.50;99.90
62339;DHT22;48368;53.406;6.214;2023-09-19T13:58:17;17.60;99.90
62339;DHT22;48368;53.406;6.214;2023-09-19T14:00:42;17.60;99.90
62339;DHT22;48368;53.406;6.214;2023-09-19T14:03:08;17.60;99.90
62339;DHT22;48368;53.406;6.214;2023-09-19T14:05:36;17.50;99.90
62339;DHT22;48368;53.406;6.214;2023-09-19T14:08:03;17.50;99.90
62339;DHT22;48368;53.406;6.214;2023-09-19T14:10:29;17.60;99.90
62339;DHT22;48368;53.406;6.214;2023-09-19T14:12:57;17.60;99.90
62339;DHT22;48368;53.406;6.214;2023-09-19T14:15:26;17.60;99.90
62339;DHT22;48368;53.406;6.214;2023-09-19T14:17:58;17.60;99.90
62339;DHT22;48368;53.406;6.214;2023-09-19T14:20:25;17.50;99.90
62339;DHT22;48368;53.406;6.214;2023-09-19T14:22:53;17.40;99.90
62339;DHT22;48368;53.406;6.214;2023-09-19T14:25:19;17.50;99.90
62339;DHT22;48368;53.406;6.214;2023-09-19T14:27:44;17.30;99.90
62339;DHT22;48368;53.406;6.214;2023-09-19T14:30:10;17.20;99.90
62339;DHT22;48368;53.406;6.214;2023-09-19T14:32:39;17.00;99.90
62339;DHT22;48368;53.406;6.214;2023-09-19T14:35:06;17.00;99.90
62339;DHT22;48368;53.406;6.214;2023-09-19T14:37:32;16.90;99.90
62339;DHT22;48368;53.406;6.214;2023-09-19T14:40:01;16.90;99.90
62339;DHT22;48368;53.406;6.214;2023-09-19T14:42:32;16.90;99.90
62339;DHT22;48368;53.406;6.214;2023-09-19T14:44:58;16.80;99.90
62339;DHT22;48368;53.406;6.214;2023-09-19T14:47:24;16.90;99.90
62339;DHT22;48368;53.406;6.214;2023-09-19T14:49:49;16.80;99.90
62339;DHT22;48368;53.406;6.214;2023-09-19T14:52:15;16.80;99.90
62339;DHT22;48368;53.406;6.214;2023-09-19T14:54:41;16.80;99.90
62339;DHT22;48368;53.406;6.214;2023-09-19T14:57:07;16.70;99.90
62339;DHT22;48368;53.406;6.214;2023-09-19T14:59:34;16.70;99.90
62339;DHT22;48368;53.406;6.214;2023-09-19T15:02:04;16.80;99.90
62339;DHT22;48368;53.406;6.214;2023-09-19T15:04:29;16.70;99.90
62339;DHT22;48368;53.406;6.214;2023-09-19T15:06:55;16.80;99.90
62339;DHT22;48368;53.406;6.214;2023-09-19T15:09:33;16.80;99.90
62339;DHT22;48368;53.406;6.214;2023-09-19T15:11:59;16.80;99.90
62339;DHT22;48368;53.406;6.214;2023-09-19T15:14:25;16.80;99.90
62339;DHT22;48368;53.406;6.214;2023-09-19T15:16:50;16.80;99.90
62339;DHT22;48368;53.406;6.214;2023-09-19T15:19:16;16.90;99.90
62339;DHT22;48368;53.406;6.214;2023-09-19T15:21:43;16.90;99.90
62339;DHT22;48368;53.406;6.214;2023-09-19T15:24:11;16.80;99.90
62339;DHT22;48368;53.406;6.214;2023-09-19T15:26:37;16.90;99.90
62339;DHT22;48368;53.406;6.214;2023-09-19T15:29:10;16.90;99.90
62339;DHT22;48368;53.406;6.214;2023-09-19T15:31:36;17.00;99.90
62339;DHT22;48368;53.406;6.214;2023-09-19T15:34:02;17.00;99.90
62339;DHT22;48368;53.406;6.214;2023-09-19T15:36:28;17.00;99.90
62339;DHT22;48368;53.406;6.214;2023-09-19T15:39:06;17.00;99.90
62339;DHT22;48368;53.406;6.214;2023-09-19T15:41:40;17.00;99.90
62339;DHT22;48368;53.406;6.214;2023-09-19T15:44:18;17.00;99.90
62339;DHT22;48368;53.406;6.214;2023-09-19T15:46:44;17.00;99.90
62339;DHT22;48368;53.406;6.214;2023-09-19T15:49:10;17.00;99.90
62339;DHT22;48368;53.406;6.214;2023-09-19T15:51:37;16.90;99.90
62339;DHT22;48368;53.406;6.214;2023-09-19T15:54:10;17.00;99.90
62339;DHT22;48368;53.406;6.214;2023-09-19T15:56:36;16.90;99.90
62339;DHT22;48368;53.406;6.214;2023-09-19T15:59:02;16.90;99.90
62339;DHT22;48368;53.406;6.214;2023-09-19T16:01:30;16.90;99.90
62339;DHT22;48368;53.406;6.214;2023-09-19T16:03:56;16.90;99.90
62339;DHT22;48368;53.406;6.214;2023-09-19T16:06:25;16.80;99.90
62339;DHT22;48368;53.406;6.214;2023-09-19T16:08:53;16.80;99.90
62339;DHT22;48368;53.406;6.214;2023-09-19T16:11:19;16.80;99.90
62339;DHT22;48368;53.406;6.214;2023-09-19T16:13:48;16.80;99.90
62339;DHT22;48368;53.406;6.214;2023-09-19T16:16:14;16.70;99.90
62339;DHT22;48368;53.406;6.214;2023-09-19T16:18:52;16.70;99.90
62339;DHT22;48368;53.406;6.214;2023-09-19T16:21:19;16.70;99.90
62339;DHT22;48368;53.406;6.214;2023-09-19T16:23:46;16.70;99.90
62339;DHT22;48368;53.406;6.214;2023-09-19T16:26:12;16.60;99.90
62339;DHT22;48368;53.406;6.214;2023-09-19T16:28:39;16.60;99.90
62339;DHT22;48368;53.406;6.214;2023-09-19T16:31:08;16.60;99.90
62339;DHT22;48368;53.406;6.214;2023-09-19T16:33:36;16.50;99.90
62339;DHT22;48368;53.406;6.214;2023-09-19T16:36:23;16.50;99.90